createdAt,value
2022-12-27T00:02:35.950Z,1.60
2022-12-27T00:05:22.996Z,1.33
2022-12-27T00:08:09.878Z,1.40
2022-12-27T00:10:56.869Z,1.70
2022-12-27T00:13:43.764Z,1.67
2022-12-27T00:16:33.210Z,1.50
2022-12-27T00:19:20.450Z,1.50
2022-12-27T00:22:07.491Z,1.70
2022-12-27T00:24:54.296Z,1.57
2022-12-27T00:27:41.461Z,1.97
2022-12-27T00:30:29.730Z,1.30
2022-12-27T00:33:16.832Z,1.50
2022-12-27T00:36:03.811Z,1.20
2022-12-27T00:38:51.970Z,1.57
2022-12-27T00:41:40.023Z,1.27
2022-12-27T00:44:27.007Z,1.30
2022-12-27T00:47:14.041Z,1.30
2022-12-27T00:50:01.174Z,1.50
2022-12-27T00:52:48.135Z,1.40
2022-12-27T00:55:35.293Z,1.30
2022-12-27T00:58:22.497Z,1.50
2022-12-27T01:01:11.239Z,1.60
2022-12-27T01:03:58.497Z,1.33
2022-12-27T01:06:48.144Z,1.50
2022-12-27T01:09:34.980Z,1.10
2022-12-27T01:12:21.947Z,1.30
2022-12-27T01:15:08.867Z,1.13
2022-12-27T01:17:56.012Z,1.23
2022-12-27T01:20:43.018Z,1.23
2022-12-27T01:23:30.032Z,1.30
2022-12-27T01:26:27.959Z,1.10
2022-12-27T01:29:15.038Z,1.40
2022-12-27T01:32:02.140Z,1.20
2022-12-27T01:34:49.104Z,1.40
2022-12-27T01:37:36.312Z,1.03
2022-12-27T01:40:23.510Z,1.00
2022-12-27T01:43:13.250Z,1.30
2022-12-27T01:46:00.241Z,1.20
2022-12-27T01:48:47.254Z,1.10
2022-12-27T01:51:34.494Z,1.33
2022-12-27T01:54:21.406Z,1.07
2022-12-27T01:57:08.479Z,1.20
2022-12-27T01:59:56.158Z,1.13
2022-12-27T02:02:43.533Z,1.30
2022-12-27T02:05:33.985Z,0.93
2022-12-27T02:08:35.054Z,1.17
2022-12-27T02:11:23.189Z,1.20
2022-12-27T02:14:10.227Z,1.20
2022-12-27T02:16:57.258Z,1.20
2022-12-27T02:19:51.638Z,1.00
2022-12-27T02:23:06.865Z,1.07
2022-12-27T02:26:27.750Z,1.13
2022-12-27T02:29:53.132Z,1.13
2022-12-27T02:32:56.002Z,1.50
2022-12-27T02:35:52.766Z,1.40
2022-12-27T02:38:44.869Z,1.40
2022-12-27T02:41:31.008Z,1.07
2022-12-27T02:44:17.367Z,1.40
2022-12-27T02:47:03.769Z,0.87
2022-12-27T02:49:52.230Z,1.33
2022-12-27T02:52:58.620Z,1.47
2022-12-27T02:56:15.698Z,1.20
2022-12-27T02:59:17.753Z,1.07
2022-12-27T03:02:38.859Z,1.20
2022-12-27T03:05:31.672Z,1.30
2022-12-27T03:08:47.060Z,1.10
2022-12-27T03:11:34.456Z,1.40
2022-12-27T03:14:36.977Z,0.93
2022-12-27T03:17:33.827Z,1.13
2022-12-27T03:20:26.654Z,1.23
2022-12-27T03:23:13.673Z,1.10
2022-12-27T03:26:04.207Z,1.10
2022-12-27T03:28:51.175Z,1.30
2022-12-27T03:31:47.528Z,1.10
2022-12-27T03:34:52.012Z,1.07
2022-12-27T03:37:43.797Z,1.00
2022-12-27T03:40:39.718Z,0.87
2022-12-27T03:43:33.417Z,1.13
2022-12-27T03:46:21.868Z,0.90
2022-12-27T03:49:20.735Z,0.80
2022-12-27T03:52:35.893Z,1.03
2022-12-27T03:55:28.445Z,0.90
2022-12-27T03:58:18.550Z,0.90
2022-12-27T04:01:05.483Z,0.93
2022-12-27T04:03:52.450Z,0.90
2022-12-27T04:06:39.492Z,0.80
2022-12-27T04:09:24.665Z,1.10
2022-12-27T04:12:10.192Z,1.10
2022-12-27T04:14:55.420Z,0.90
2022-12-27T04:17:40.929Z,0.80
2022-12-27T04:20:26.958Z,0.80
2022-12-27T04:23:12.555Z,0.80
2022-12-27T04:25:58.064Z,0.97
2022-12-27T04:28:43.631Z,1.00
2022-12-27T04:31:29.278Z,0.77
2022-12-27T04:34:14.930Z,1.00
2022-12-27T04:37:02.088Z,1.07
2022-12-27T04:39:49.691Z,1.00
2022-12-27T04:42:35.222Z,1.20
2022-12-27T04:45:21.261Z,1.10
2022-12-27T04:48:06.637Z,1.47
2022-12-27T04:50:52.298Z,1.40
2022-12-27T04:53:40.075Z,1.43
2022-12-27T04:56:27.281Z,1.27
2022-12-27T04:59:12.951Z,1.43
2022-12-27T05:01:59.262Z,1.40
2022-12-27T05:04:46.462Z,1.37
2022-12-27T05:07:34.518Z,1.40
2022-12-27T05:10:22.552Z,1.40
2022-12-27T05:13:08.256Z,1.37
2022-12-27T05:15:55.217Z,1.40
2022-12-27T05:18:42.908Z,1.30
2022-12-27T05:21:29.867Z,1.20
2022-12-27T05:24:15.302Z,1.20
2022-12-27T05:27:02.422Z,1.37
2022-12-27T05:29:50.739Z,1.40
2022-12-27T05:32:37.756Z,1.50
2022-12-27T05:35:24.959Z,1.10
2022-12-27T05:38:13.492Z,1.00
2022-12-27T05:41:00.738Z,1.33
2022-12-27T05:43:48.670Z,1.50
2022-12-27T05:46:39.263Z,1.57
2022-12-27T05:49:26.266Z,1.23
2022-12-27T05:52:13.255Z,1.43
2022-12-27T05:55:00.060Z,1.50
2022-12-27T05:57:47.065Z,1.53
2022-12-27T06:00:34.498Z,1.50
2022-12-27T06:03:23.471Z,1.33
2022-12-27T06:06:10.390Z,1.30
2022-12-27T06:08:58.217Z,1.20
2022-12-27T06:11:45.152Z,1.30
2022-12-27T06:14:32.160Z,1.20
2022-12-27T06:17:19.270Z,1.30
2022-12-27T06:20:06.399Z,1.20
2022-12-27T06:22:53.283Z,1.10
2022-12-27T06:25:40.249Z,1.33
2022-12-27T06:28:27.099Z,1.00
2022-12-27T06:31:14.262Z,1.10
2022-12-27T06:34:01.368Z,1.10
2022-12-27T06:36:48.337Z,0.90
2022-12-27T06:39:35.261Z,1.00
2022-12-27T06:42:22.252Z,1.03
2022-12-27T06:45:09.194Z,0.93
2022-12-27T06:47:56.299Z,0.93
2022-12-27T06:50:43.141Z,1.00
2022-12-27T06:53:30.049Z,0.83
2022-12-27T06:56:16.947Z,1.00
2022-12-27T06:59:05.135Z,0.83
2022-12-27T07:01:52.320Z,1.03
2022-12-27T07:04:40.114Z,1.10
2022-12-27T07:07:26.999Z,0.90
2022-12-27T07:10:13.815Z,1.10
2022-12-27T07:13:00.708Z,1.10
2022-12-27T07:15:47.770Z,1.00
2022-12-27T07:18:35.095Z,1.13
2022-12-27T07:21:31.226Z,1.13
2022-12-27T07:24:18.264Z,1.30
2022-12-27T07:27:05.301Z,1.47
2022-12-27T07:29:52.178Z,0.87
2022-12-27T07:32:39.469Z,1.00
2022-12-27T07:35:26.601Z,1.00
2022-12-27T07:38:13.540Z,1.10
2022-12-27T07:41:00.456Z,0.73
2022-12-27T07:43:53.406Z,1.00
2022-12-27T07:46:43.718Z,0.80
2022-12-27T07:49:31.433Z,0.80
2022-12-27T07:52:19.205Z,1.00
2022-12-27T07:55:06.505Z,1.03
2022-12-27T07:57:53.314Z,1.00
2022-12-27T08:00:40.432Z,0.87
2022-12-27T08:03:27.437Z,1.07
2022-12-27T08:06:14.465Z,1.00
2022-12-27T08:09:03.809Z,0.90
2022-12-27T08:11:50.715Z,0.80
2022-12-27T08:14:37.668Z,1.10
2022-12-27T08:17:31.434Z,1.10
2022-12-27T08:20:18.495Z,1.00
2022-12-27T08:23:05.287Z,1.00
2022-12-27T08:25:52.387Z,0.90
2022-12-27T08:28:39.237Z,1.00
2022-12-27T08:31:28.283Z,0.90
2022-12-27T08:34:16.553Z,0.53
2022-12-27T08:37:03.410Z,1.00
2022-12-27T08:39:50.215Z,1.00
2022-12-27T08:42:37.164Z,0.90
2022-12-27T08:45:24.364Z,0.90
2022-12-27T08:48:11.434Z,0.70
2022-12-27T08:50:58.395Z,0.70
2022-12-27T08:53:45.259Z,0.87
2022-12-27T08:56:32.130Z,0.70
2022-12-27T08:59:19.018Z,0.60
2022-12-27T09:02:06.155Z,0.80
2022-12-27T09:04:53.119Z,0.50
2022-12-27T09:07:40.179Z,0.40
2022-12-27T09:10:27.726Z,0.60
2022-12-27T09:13:14.579Z,0.60
2022-12-27T09:16:02.652Z,0.60
2022-12-27T09:18:49.574Z,0.40
2022-12-27T09:21:37.972Z,0.60
2022-12-27T09:24:24.975Z,0.50
2022-12-27T09:27:11.815Z,0.60
2022-12-27T09:29:58.767Z,0.80
2022-12-27T09:32:45.671Z,0.60
2022-12-27T09:35:36.921Z,0.43
2022-12-27T09:38:26.173Z,0.70
2022-12-27T09:41:19.984Z,0.60
2022-12-27T09:44:22.423Z,0.60
2022-12-27T09:47:18.622Z,0.57
2022-12-27T09:50:10.952Z,0.60
2022-12-27T09:53:03.149Z,0.53
2022-12-27T09:55:52.918Z,0.60
2022-12-27T09:59:09.157Z,0.60
2022-12-27T10:01:58.338Z,0.60
2022-12-27T10:05:17.698Z,0.70
2022-12-27T10:08:33.045Z,0.50
2022-12-27T10:11:28.900Z,0.80
2022-12-27T10:14:21.676Z,0.63
2022-12-27T10:17:53.662Z,0.63
2022-12-27T10:20:53.385Z,0.50
2022-12-27T10:23:45.978Z,0.60
2022-12-27T10:26:38.942Z,0.50
2022-12-27T10:29:42.767Z,0.60
2022-12-27T10:32:32.547Z,0.70
2022-12-27T10:35:22.572Z,0.57
2022-12-27T10:38:09.641Z,0.67
2022-12-27T10:41:10.671Z,0.70
2022-12-27T10:44:01.634Z,0.70
2022-12-27T10:46:51.361Z,0.80
2022-12-27T10:49:45.191Z,0.83
2022-12-27T10:52:41.109Z,0.80
2022-12-27T10:55:58.180Z,0.80
2022-12-27T10:58:58.771Z,0.80
2022-12-27T11:01:49.135Z,1.23
2022-12-27T11:04:41.669Z,0.90
2022-12-27T11:07:28.512Z,1.00
2022-12-27T11:10:35.319Z,0.90
2022-12-27T11:13:27.103Z,1.13
2022-12-27T11:16:16.455Z,1.23
2022-12-27T11:19:08.179Z,1.10
2022-12-27T11:21:59.410Z,1.00
2022-12-27T11:24:46.594Z,0.90
2022-12-27T11:27:45.970Z,0.87
2022-12-27T11:31:09.517Z,0.87
2022-12-27T11:34:00.262Z,0.83
2022-12-27T11:37:00.775Z,0.70
2022-12-27T11:40:04.641Z,0.93
2022-12-27T11:43:00.592Z,0.70
2022-12-27T11:46:10.603Z,0.87
2022-12-27T11:49:02.167Z,1.13
2022-12-27T11:51:59.259Z,0.80
2022-12-27T11:54:53.507Z,1.30
2022-12-27T11:58:12.084Z,1.07
2022-12-27T12:01:09.400Z,0.73
2022-12-27T12:04:30.277Z,1.00
2022-12-27T12:07:35.459Z,1.10
2022-12-27T12:10:43.941Z,0.80
2022-12-27T12:13:42.934Z,0.90
2022-12-27T12:16:51.020Z,0.90
2022-12-27T12:19:59.310Z,1.10
2022-12-27T12:23:11.066Z,0.73
2022-12-27T12:26:10.542Z,0.90
2022-12-27T12:29:34.714Z,1.00
2022-12-27T12:32:45.000Z,0.90
2022-12-27T12:35:48.762Z,1.00
2022-12-27T12:38:56.782Z,0.77
2022-12-27T12:42:14.954Z,0.90
2022-12-27T12:45:16.876Z,1.07
2022-12-27T12:48:36.686Z,0.77
2022-12-27T12:51:48.236Z,0.80
2022-12-27T12:55:06.841Z,0.63
2022-12-27T12:58:12.236Z,0.50
2022-12-27T13:01:15.340Z,0.97
2022-12-27T13:04:20.761Z,0.70
2022-12-27T13:07:10.541Z,0.40
2022-12-27T13:10:09.561Z,0.60
2022-12-27T13:13:18.243Z,0.70
2022-12-27T13:16:42.608Z,0.60
2022-12-27T13:19:35.227Z,0.67
2022-12-27T13:23:00.396Z,0.40
2022-12-27T13:26:03.033Z,0.67
2022-12-27T13:29:15.438Z,0.70
2022-12-27T13:32:26.296Z,0.60
2022-12-27T13:35:47.305Z,0.70
2022-12-27T13:38:46.312Z,0.47
2022-12-27T13:41:43.787Z,0.40
2022-12-27T13:45:05.247Z,0.70
2022-12-27T13:48:45.812Z,0.63
2022-12-27T13:51:50.696Z,0.70
2022-12-27T13:55:04.919Z,0.77
2022-12-27T13:58:03.970Z,0.50
2022-12-27T14:01:11.813Z,0.70
2022-12-27T14:04:11.692Z,0.60
2022-12-27T14:07:04.617Z,0.40
2022-12-27T14:10:00.408Z,0.50
2022-12-27T14:13:04.240Z,0.60
2022-12-27T14:16:28.815Z,0.40
2022-12-27T14:19:50.996Z,0.60
2022-12-27T14:22:43.974Z,0.40
2022-12-27T14:25:36.929Z,0.53
2022-12-27T14:28:54.734Z,0.60
2022-12-27T14:32:21.512Z,0.40
2022-12-27T14:35:42.407Z,0.60
2022-12-27T14:39:23.301Z,0.50
2022-12-27T14:42:42.532Z,0.50
2022-12-27T14:45:41.881Z,0.33
2022-12-27T14:48:50.627Z,0.40
2022-12-27T14:52:08.739Z,0.47
2022-12-27T14:55:25.850Z,0.50
2022-12-27T14:58:28.285Z,0.43
2022-12-27T15:01:14.280Z,0.53
2022-12-27T15:04:13.860Z,0.50
2022-12-27T15:07:00.831Z,0.40
2022-12-27T15:09:45.464Z,0.47
2022-12-27T15:12:44.424Z,0.40
2022-12-27T15:15:56.527Z,0.40
2022-12-27T15:19:01.614Z,0.50
2022-12-27T15:22:23.070Z,0.60
2022-12-27T15:25:34.945Z,0.43
2022-12-27T15:28:27.510Z,0.27
2022-12-27T15:31:20.573Z,0.40
2022-12-27T15:34:16.418Z,0.37
2022-12-27T15:37:08.592Z,0.40
2022-12-27T15:39:58.233Z,0.40
2022-12-27T15:43:02.884Z,0.50
2022-12-27T15:46:02.684Z,0.50
2022-12-27T15:48:58.609Z,0.40
2022-12-27T15:51:50.903Z,0.40
2022-12-27T15:55:02.946Z,0.40
2022-12-27T15:57:55.568Z,0.30
2022-12-27T16:00:46.549Z,0.50
2022-12-27T16:03:54.756Z,0.43
2022-12-27T16:06:55.647Z,0.50
2022-12-27T16:09:45.803Z,0.73
2022-12-27T16:12:55.879Z,0.60
2022-12-27T16:16:04.892Z,0.70
2022-12-27T16:19:16.668Z,0.60
2022-12-27T16:22:06.222Z,0.47
2022-12-27T16:24:53.338Z,0.60
2022-12-27T16:27:53.026Z,0.57
2022-12-27T16:30:55.288Z,0.90
2022-12-27T16:33:48.001Z,0.53
2022-12-27T16:36:57.756Z,0.63
2022-12-27T16:40:18.589Z,0.50
2022-12-27T16:43:25.780Z,0.63
2022-12-27T16:46:15.795Z,0.77
2022-12-27T16:49:19.230Z,1.20
2022-12-27T16:52:33.810Z,0.83
2022-12-27T17:06:36.193Z,0.90
2022-12-27T17:09:33.774Z,0.73
2022-12-27T17:12:32.456Z,0.93
2022-12-27T17:15:24.629Z,0.80
2022-12-27T17:18:15.061Z,0.83
2022-12-27T17:21:04.850Z,1.00
2022-12-27T17:24:04.272Z,1.00
2022-12-27T17:27:06.332Z,0.80
2022-12-27T17:30:02.484Z,0.70
2022-12-27T17:33:18.992Z,0.50
2022-12-27T17:36:24.059Z,0.80
2022-12-27T17:39:27.634Z,0.80
2022-12-27T17:42:50.021Z,0.57
2022-12-27T17:45:52.303Z,0.60
2022-12-27T17:48:49.426Z,0.60
2022-12-27T17:51:42.589Z,0.60
2022-12-27T17:54:46.570Z,1.00
2022-12-27T17:57:35.377Z,0.80
2022-12-27T18:00:23.923Z,1.10
2022-12-27T18:03:14.395Z,0.90
2022-12-27T18:06:04.126Z,0.90
2022-12-27T18:08:52.945Z,0.83
2022-12-27T18:11:40.707Z,0.77
2022-12-27T18:14:33.732Z,0.90
2022-12-27T18:17:26.790Z,0.60
2022-12-27T18:20:15.676Z,0.60
2022-12-27T18:23:03.001Z,1.00
2022-12-27T18:25:58.505Z,0.50
2022-12-27T18:28:51.050Z,0.73
2022-12-27T18:31:43.682Z,1.00
2022-12-27T18:35:12.073Z,0.73
2022-12-27T18:37:59.226Z,0.67
2022-12-27T18:40:46.391Z,0.80
2022-12-27T18:43:38.012Z,1.10
2022-12-27T18:46:25.110Z,1.13
2022-12-27T18:49:13.025Z,0.70
2022-12-27T18:51:59.913Z,1.13
2022-12-27T18:54:49.529Z,1.23
2022-12-27T18:57:57.157Z,1.20
2022-12-27T19:00:45.668Z,1.00
2022-12-27T19:03:40.816Z,1.10
2022-12-27T19:06:31.137Z,1.33
2022-12-27T19:09:17.985Z,1.20
2022-12-27T19:12:20.835Z,0.90
2022-12-27T19:15:07.860Z,0.87
2022-12-27T19:17:58.473Z,1.10
2022-12-27T19:20:49.376Z,0.70
2022-12-27T19:23:57.440Z,0.97
2022-12-27T19:26:50.197Z,0.80
2022-12-27T19:29:42.822Z,0.80
2022-12-27T19:32:30.107Z,0.93
2022-12-27T19:35:20.226Z,1.00
2022-12-27T19:38:07.227Z,0.77
2022-12-27T19:40:58.188Z,0.90
2022-12-27T19:43:54.315Z,0.60
2022-12-27T19:46:41.252Z,0.90
2022-12-27T19:49:44.724Z,0.63
2022-12-27T19:52:43.934Z,0.70
2022-12-27T19:55:38.998Z,0.57
2022-12-27T19:58:25.821Z,0.67
2022-12-27T20:01:13.511Z,1.13
2022-12-27T20:04:00.499Z,0.60
2022-12-27T20:06:48.429Z,1.00
2022-12-27T20:09:38.182Z,0.70
2022-12-27T20:12:25.328Z,1.00
2022-12-27T20:15:12.320Z,0.80
2022-12-27T20:17:59.270Z,1.00
2022-12-27T20:20:46.122Z,1.00
2022-12-27T20:23:33.906Z,1.10
2022-12-27T20:26:20.999Z,1.43
2022-12-27T20:29:09.500Z,1.40
2022-12-27T20:31:57.232Z,1.20
2022-12-27T20:34:44.310Z,1.87
2022-12-27T20:37:31.352Z,1.23
2022-12-27T20:40:18.269Z,1.40
2022-12-27T20:43:05.354Z,1.60
2022-12-27T20:45:52.359Z,1.30
2022-12-27T20:48:39.173Z,1.53
2022-12-27T20:51:31.025Z,1.10
2022-12-27T20:54:20.630Z,1.40
2022-12-27T20:57:07.676Z,1.10
2022-12-27T20:59:54.533Z,1.10
2022-12-27T21:02:41.545Z,1.20
2022-12-27T21:05:28.827Z,1.10
2022-12-27T21:08:15.833Z,1.20
2022-12-27T21:11:02.825Z,1.30
2022-12-27T21:13:49.707Z,1.27
2022-12-27T21:16:43.086Z,1.50
2022-12-27T21:19:30.102Z,1.30
2022-12-27T21:22:17.614Z,1.40
2022-12-27T21:25:04.681Z,1.77
2022-12-27T21:27:51.705Z,1.50
2022-12-27T21:30:38.660Z,1.40
2022-12-27T21:33:25.615Z,1.50
2022-12-27T21:36:33.237Z,1.80
2022-12-27T21:39:20.250Z,1.60
2022-12-27T21:42:07.612Z,2.00
2022-12-27T21:44:54.674Z,1.80
2022-12-27T21:47:41.473Z,1.70
2022-12-27T21:50:33.867Z,1.60
2022-12-27T21:53:23.938Z,1.50
2022-12-27T21:56:17.839Z,1.70
2022-12-27T21:59:06.104Z,1.90
2022-12-27T22:01:53.318Z,1.83
2022-12-27T22:04:40.987Z,2.07
2022-12-27T22:07:28.030Z,1.80
2022-12-27T22:10:14.947Z,1.70
2022-12-27T22:13:02.470Z,1.93
2022-12-27T22:15:49.303Z,2.10
2022-12-27T22:18:36.180Z,1.90
2022-12-27T22:21:26.326Z,2.10
2022-12-27T22:24:15.127Z,1.93
2022-12-27T22:27:01.994Z,1.90
2022-12-27T22:29:49.264Z,1.90
2022-12-27T22:32:36.086Z,1.97
2022-12-27T22:35:23.322Z,1.87
2022-12-27T22:38:10.208Z,1.80
2022-12-27T22:40:57.283Z,2.13
2022-12-27T22:43:44.099Z,2.20
2022-12-27T22:46:51.670Z,1.87
2022-12-27T22:49:39.780Z,2.03
2022-12-27T22:52:26.745Z,1.67
2022-12-27T22:55:13.627Z,1.80
2022-12-27T22:58:01.198Z,1.97
2022-12-27T23:00:48.050Z,1.97
2022-12-27T23:03:35.025Z,2.20
2022-12-27T23:06:21.950Z,2.00
2022-12-27T23:09:09.060Z,2.47
2022-12-27T23:11:59.573Z,2.17
2022-12-27T23:14:46.672Z,2.70
2022-12-27T23:17:34.482Z,2.47
2022-12-27T23:20:21.474Z,2.50
2022-12-27T23:23:08.299Z,2.50
2022-12-27T23:25:55.762Z,2.60
2022-12-27T23:28:43.458Z,1.93
2022-12-27T23:31:32.460Z,2.60
2022-12-27T23:34:24.105Z,2.80
2022-12-27T23:37:14.509Z,2.13
2022-12-27T23:40:01.374Z,2.03
2022-12-27T23:42:48.214Z,2.47
2022-12-27T23:45:35.564Z,2.20
2022-12-27T23:48:22.509Z,1.70
2022-12-27T23:51:09.408Z,1.53
2022-12-27T23:53:56.764Z,1.90
2022-12-27T23:56:52.482Z,1.60
2022-12-27T23:59:39.529Z,1.47
